createdAt,value
2017-02-18T00:00:31.021Z,0
2017-02-18T00:01:36.156Z,0
2017-02-18T00:02:42.255Z,0
2017-02-18T00:03:47.358Z,0
2017-02-18T00:04:52.482Z,0
2017-02-18T00:05:56.614Z,0
2017-02-18T00:07:02.716Z,0
2017-02-18T00:08:08.808Z,0
2017-02-18T00:09:14.931Z,0
2017-02-18T00:10:19.090Z,0
2017-02-18T00:11:22.293Z,0
2017-02-18T00:12:27.389Z,0
2017-02-18T00:13:33.488Z,0
2017-02-18T00:14:39.589Z,0
2017-02-18T00:15:44.720Z,0
2017-02-18T00:16:49.843Z,0
2017-02-18T00:17:55.946Z,0
2017-02-18T00:19:01.073Z,0
2017-02-18T00:20:07.170Z,0
2017-02-18T00:21:11.332Z,0
2017-02-18T00:22:17.419Z,0
2017-02-18T00:23:23.518Z,0
2017-02-18T00:24:29.649Z,0
2017-02-18T00:25:35.727Z,0
2017-02-18T00:26:41.812Z,0
2017-02-18T00:27:47.908Z,0
2017-02-18T00:28:54.014Z,0
2017-02-18T00:30:00.105Z,0
2017-02-18T00:31:06.203Z,0
2017-02-18T00:32:12.291Z,0
2017-02-18T00:33:17.439Z,0
2017-02-18T00:34:23.523Z,0
2017-02-18T00:35:29.634Z,0
2017-02-18T00:36:35.717Z,0
2017-02-18T00:37:40.849Z,0
2017-02-18T00:38:45.123Z,0
2017-02-18T00:39:51.218Z,0
2017-02-18T00:40:56.348Z,0
2017-02-18T00:42:01.465Z,0
2017-02-18T00:43:06.616Z,0
2017-02-18T00:44:11.772Z,0
2017-02-18T00:45:15.910Z,0
2017-02-18T00:46:22.002Z,0
2017-02-18T00:47:27.182Z,0
2017-02-18T00:48:31.546Z,0
2017-02-18T00:49:36.683Z,0
2017-02-18T00:50:42.787Z,0
2017-02-18T00:51:48.885Z,0
2017-02-18T00:52:54.064Z,0
2017-02-18T00:54:00.164Z,0
2017-02-18T00:55:04.431Z,0
2017-02-18T00:56:08.704Z,0
2017-02-18T00:57:14.832Z,0
2017-02-18T00:58:20.920Z,0
2017-02-18T00:59:26.050Z,0
2017-02-18T01:00:31.177Z,0
2017-02-18T01:01:36.309Z,0
2017-02-18T01:02:41.434Z,0
2017-02-18T01:03:47.541Z,0
2017-02-18T01:04:53.636Z,0
2017-02-18T01:05:58.786Z,0
2017-02-18T01:07:02.934Z,0
2017-02-18T01:08:08.062Z,0
2017-02-18T01:09:13.192Z,0
2017-02-18T01:10:17.343Z,0
2017-02-18T01:11:22.479Z,0
2017-02-18T01:12:28.578Z,0
2017-02-18T01:13:34.682Z,0
2017-02-18T01:14:40.780Z,0
2017-02-18T01:15:45.915Z,0
2017-02-18T01:16:52.017Z,0
2017-02-18T01:17:58.117Z,0
2017-02-18T01:19:04.308Z,0
2017-02-18T01:20:10.412Z,0
2017-02-18T01:21:16.512Z,0
2017-02-18T01:22:21.632Z,0
2017-02-18T01:23:25.780Z,0
2017-02-18T01:24:31.857Z,0
2017-02-18T01:25:36.958Z,0
2017-02-18T01:26:42.129Z,0
2017-02-18T01:27:48.277Z,0
2017-02-18T01:28:53.404Z,0
2017-02-18T01:29:55.636Z,0
2017-02-18T01:31:00.740Z,0
2017-02-18T01:32:06.078Z,0
2017-02-18T01:33:11.268Z,0
2017-02-18T08:13:38.284Z,3512
2017-02-18T08:14:44.419Z,3472
2017-02-18T08:15:49.559Z,3620
2017-02-18T08:16:53.708Z,3792
2017-02-18T08:17:58.807Z,3908
2017-02-18T08:19:04.909Z,3824
2017-02-18T08:20:11.003Z,3744
2017-02-18T08:21:17.110Z,3892
2017-02-18T08:22:23.216Z,4204
2017-02-18T08:23:28.351Z,4728
2017-02-18T08:24:32.524Z,5480
2017-02-18T08:25:38.723Z,5676
2017-02-18T08:26:43.855Z,5912
2017-02-18T08:27:50.038Z,5848
2017-02-18T08:28:56.200Z,5784
2017-02-18T08:30:01.246Z,5620
2017-02-18T08:31:07.358Z,5932
2017-02-18T08:32:13.458Z,6464
2017-02-18T08:33:18.594Z,6500
2017-02-18T08:34:23.704Z,6360
2017-02-18T08:35:28.803Z,6392
2017-02-18T08:36:34.902Z,6308
2017-02-18T08:37:40.051Z,6112
2017-02-18T08:38:46.161Z,6260
2017-02-18T08:39:51.290Z,6092
2017-02-18T08:40:57.387Z,5840
2017-02-18T08:42:03.491Z,5796
2017-02-18T08:43:07.664Z,6008
2017-02-18T08:44:13.807Z,6140
2017-02-18T08:45:18.898Z,6176
2017-02-18T08:46:24.059Z,6244
2017-02-18T08:47:29.173Z,5924
2017-02-18T08:48:33.299Z,5800
2017-02-18T08:49:38.467Z,6152
2017-02-18T08:50:43.573Z,6476
2017-02-18T08:51:47.868Z,6704
2017-02-18T08:52:53.970Z,6888
2017-02-18T08:54:00.073Z,6692
2017-02-18T08:55:03.255Z,7008
2017-02-18T08:56:06.446Z,7388
2017-02-18T08:57:12.536Z,7872
2017-02-18T08:58:17.637Z,8268
2017-02-18T08:59:23.734Z,8008
2017-02-18T09:00:28.869Z,8436
2017-02-18T09:01:34.964Z,8752
2017-02-18T09:02:40.072Z,8336
2017-02-18T09:03:45.184Z,9032
2017-02-18T09:04:51.293Z,9892
2017-02-18T09:05:56.389Z,10620
2017-02-18T09:07:02.493Z,10352
2017-02-18T09:08:07.630Z,11160
2017-02-18T09:09:12.782Z,11744
2017-02-18T09:10:17.908Z,11620
2017-02-18T09:11:22.046Z,12356
2017-02-18T09:12:27.185Z,11844
2017-02-18T09:13:33.281Z,11292
2017-02-18T09:14:39.389Z,14276
2017-02-18T09:15:45.482Z,12372
2017-02-18T09:16:51.686Z,10928
2017-02-18T09:17:55.731Z,10536
2017-02-18T09:19:00.839Z,11864
2017-02-18T09:20:05.960Z,10440
2017-02-18T09:21:12.053Z,10224
2017-02-18T09:22:18.168Z,10496
2017-02-18T09:23:21.411Z,9500
2017-02-18T09:24:27.511Z,9592
2017-02-18T09:25:31.793Z,10312
2017-02-18T09:26:37.880Z,10312
2017-02-18T09:27:42.056Z,10700
2017-02-18T09:28:47.195Z,10832
2017-02-18T09:29:53.300Z,11584
2017-02-18T09:30:59.412Z,12188
2017-02-18T09:32:05.507Z,11716
2017-02-18T09:33:11.623Z,11352
2017-02-18T09:34:15.785Z,14164
2017-02-18T09:35:20.100Z,12640
2017-02-18T09:36:24.278Z,12868
2017-02-18T09:37:29.413Z,12024
2017-02-18T09:38:35.522Z,12220
2017-02-18T09:39:41.618Z,14384
2017-02-18T09:40:47.721Z,18240
2017-02-18T09:41:50.892Z,13768
2017-02-18T09:42:56.998Z,13388
2017-02-18T09:44:02.152Z,13860
2017-02-18T09:45:07.299Z,16096
2017-02-18T09:46:11.459Z,15716
2017-02-18T09:47:16.574Z,14636
2017-02-18T09:48:21.698Z,12900
2017-02-18T09:49:27.823Z,13028
2017-02-18T09:50:31.014Z,14940
2017-02-18T09:51:36.222Z,13824
2017-02-18T09:52:41.418Z,14892
2017-02-18T09:53:46.512Z,21184
2017-02-18T09:54:52.621Z,13316
2017-02-18T09:55:57.773Z,15080
2017-02-18T09:57:02.908Z,14916
2017-02-18T09:58:08.046Z,15648
2017-02-18T09:59:14.176Z,15540
2017-02-18T10:00:19.378Z,15240
2017-02-18T10:01:24.523Z,12716
2017-02-18T10:02:28.723Z,12428
2017-02-18T10:03:33.869Z,13500
2017-02-18T10:04:39.010Z,14860
2017-02-18T10:05:45.225Z,13340
2017-02-18T10:06:50.363Z,14032
2017-02-18T10:07:56.552Z,18336
2017-02-18T10:09:02.589Z,12580
2017-02-18T10:10:06.763Z,14836
2017-02-18T10:11:12.891Z,13628
2017-02-18T10:12:19.031Z,13304
2017-02-18T10:13:24.147Z,11996
2017-02-18T10:14:30.356Z,12056
2017-02-18T10:15:36.482Z,14076
2017-02-18T10:16:41.604Z,17888
2017-02-18T10:17:47.720Z,15056
2017-02-18T10:18:53.843Z,12608
2017-02-18T10:19:59.947Z,12936
2017-02-18T10:21:06.065Z,15536
2017-02-18T10:22:10.190Z,14724
2017-02-18T10:23:16.296Z,13376
2017-02-18T10:24:22.397Z,12944
2017-02-18T10:25:27.503Z,11868
2017-02-18T10:26:32.647Z,12920
2017-02-18T10:27:38.761Z,13640
2017-02-18T10:28:44.027Z,12508
2017-02-18T10:29:49.066Z,12804
2017-02-18T10:30:54.214Z,13936
2017-02-18T10:32:00.301Z,14108
2017-02-18T10:33:06.431Z,13504
2017-02-18T10:34:10.589Z,13324
2017-02-18T10:35:15.756Z,12744
2017-02-18T10:36:21.847Z,14532
2017-02-18T10:37:27.949Z,13624
2017-02-18T10:38:33.085Z,13960
2017-02-18T10:39:39.181Z,18368
2017-02-18T10:40:44.339Z,15276
2017-02-18T10:41:49.471Z,18272
2017-02-18T10:42:55.576Z,13352
2017-02-18T10:44:01.684Z,14356
2017-02-18T10:45:07.789Z,21664
2017-02-18T10:46:13.912Z,29920
2017-02-18T10:47:20.150Z,37952
2017-02-18T10:48:23.268Z,45312
2017-02-18T10:49:27.444Z,41024
2017-02-18T10:50:33.573Z,28096
2017-02-18T10:51:38.712Z,41600
2017-02-18T10:52:43.859Z,45632
2017-02-18T10:53:48.960Z,24800
2017-02-18T10:54:54.099Z,33216
2017-02-18T10:55:58.268Z,49120
2017-02-18T10:57:01.488Z,22496
2017-02-18T10:58:06.629Z,31520
2017-02-18T10:59:11.773Z,31040
2017-02-18T11:00:17.890Z,30208
2017-02-18T11:01:23.034Z,32416
2017-02-18T11:02:29.136Z,39680
2017-02-18T11:03:33.314Z,24992
2017-02-18T11:04:38.425Z,41280
2017-02-18T11:05:44.535Z,38656
2017-02-18T11:06:50.642Z,36032
2017-02-18T11:07:55.834Z,38368
2017-02-18T11:09:01.948Z,17216
2017-02-18T11:10:08.065Z,7136
2017-02-18T11:11:12.228Z,6392
2017-02-18T11:12:18.334Z,5656
2017-02-18T11:13:24.552Z,5372
2017-02-18T11:14:28.727Z,5352
2017-02-18T11:15:33.896Z,5456
2017-02-18T11:16:40.001Z,7524
2017-02-18T11:17:46.101Z,32160
2017-02-18T11:18:51.292Z,28160
2017-02-18T11:19:57.399Z,7200
2017-02-18T11:21:01.574Z,6232
2017-02-18T11:22:06.687Z,6112
2017-02-18T11:23:12.869Z,6552
2017-02-18T11:24:17.013Z,6968
2017-02-18T11:25:21.162Z,6836
2017-02-18T11:26:26.259Z,6524
2017-02-18T11:27:32.424Z,7304
2017-02-18T11:28:38.538Z,6884
2017-02-18T11:29:44.640Z,7124
2017-02-18T11:30:50.761Z,9376
2017-02-18T11:31:55.890Z,10924
2017-02-18T11:33:01.100Z,11204
2017-02-18T11:34:06.232Z,11820
2017-02-18T11:35:10.430Z,11528
2017-02-18T11:36:15.550Z,10504
2017-02-18T11:37:21.647Z,10628
2017-02-18T11:38:26.803Z,10780
2017-02-18T11:39:32.931Z,11076
2017-02-18T11:40:39.045Z,10312
2017-02-18T11:41:44.184Z,9484
2017-02-18T11:42:49.298Z,8460
2017-02-18T11:43:55.411Z,7368
2017-02-18T11:45:01.514Z,7360
2017-02-18T11:46:07.612Z,7872
2017-02-18T11:47:13.718Z,8192
2017-02-18T11:48:17.853Z,8132
2017-02-18T11:49:22.995Z,8240
2017-02-18T11:50:27.143Z,8212
2017-02-18T11:51:33.265Z,8096
2017-02-18T11:52:39.366Z,8576
2017-02-18T11:53:45.472Z,9176
2017-02-18T11:54:50.589Z,9088
2017-02-18T11:55:56.879Z,9072
2017-02-18T11:57:01.101Z,8888
2017-02-18T11:58:07.172Z,9516
2017-02-18T11:59:13.282Z,9848
2017-02-18T12:00:18.440Z,10264
2017-02-18T12:01:23.570Z,10936
2017-02-18T12:02:29.770Z,10344
2017-02-18T12:03:35.944Z,8492
2017-02-18T12:04:42.036Z,6960
2017-02-18T12:05:48.151Z,7024
2017-02-18T12:06:53.292Z,7080
2017-02-18T12:07:58.440Z,6928
2017-02-18T12:09:04.559Z,6976
2017-02-18T12:10:10.648Z,6652
2017-02-18T12:11:15.888Z,6912
2017-02-18T12:12:21.027Z,6632
2017-02-18T12:13:27.124Z,5716
2017-02-18T12:14:33.236Z,4980
2017-02-18T12:15:38.362Z,4672
2017-02-18T12:16:41.530Z,4876
2017-02-18T12:17:47.628Z,5988
2017-02-18T12:18:53.730Z,6456
2017-02-18T12:19:59.848Z,5932
2017-02-18T12:21:05.947Z,5716
2017-02-18T12:22:09.141Z,5456
2017-02-18T12:23:14.246Z,6092
2017-02-18T12:24:20.348Z,5916
2017-02-18T12:25:24.534Z,6412
2017-02-18T12:26:28.757Z,7464
2017-02-18T12:27:34.886Z,7172
2017-02-18T12:28:40.001Z,6944
2017-02-18T12:29:45.147Z,7320
2017-02-18T12:30:49.313Z,8412
2017-02-18T12:31:54.439Z,9000
2017-02-18T12:32:57.659Z,9740
2017-02-18T12:34:02.771Z,10208
2017-02-18T12:35:07.908Z,10252
2017-02-18T12:36:13.039Z,10608
2017-02-18T12:37:18.164Z,10264
2017-02-18T12:38:23.307Z,10500
2017-02-18T12:39:29.402Z,10616
2017-02-18T12:40:33.566Z,10104
2017-02-18T12:41:37.747Z,9432
2017-02-18T12:42:42.877Z,9964
2017-02-18T12:43:47.083Z,9920
2017-02-18T12:44:51.301Z,9880
2017-02-18T12:45:55.433Z,9732
2017-02-18T12:47:00.621Z,9524
2017-02-18T12:48:04.780Z,9308
2017-02-18T12:49:07.127Z,9036
2017-02-18T12:50:12.268Z,8940
2017-02-18T12:51:17.414Z,8372
2017-02-18T12:52:23.516Z,8060
2017-02-18T12:53:29.622Z,8412
2017-02-18T12:54:34.771Z,8188
2017-02-18T12:55:40.996Z,8032
2017-02-18T12:56:46.111Z,7984
2017-02-18T12:57:52.270Z,7832
2017-02-18T12:58:58.366Z,7876
2017-02-18T13:00:03.501Z,7640
2017-02-18T13:01:07.655Z,7276
2017-02-18T13:02:11.811Z,7124
2017-02-18T13:03:16.938Z,7072
2017-02-18T13:04:23.036Z,7000
2017-02-18T13:05:29.132Z,7172
2017-02-18T13:06:34.282Z,7340
2017-02-18T13:07:40.389Z,6660
2017-02-18T13:08:43.566Z,6644
2017-02-18T13:09:48.709Z,6692
2017-02-18T13:10:53.828Z,6320
2017-02-18T13:11:59.944Z,5960
2017-02-18T13:13:06.041Z,5848
2017-02-18T13:14:12.143Z,5820
2017-02-18T13:15:17.260Z,5780
2017-02-18T13:16:21.496Z,5816
2017-02-18T13:17:27.596Z,5920
2017-02-18T13:18:32.734Z,5892
2017-02-18T13:19:36.920Z,5960
2017-02-18T13:20:42.053Z,5892
2017-02-18T13:21:48.155Z,5996
2017-02-18T13:22:53.314Z,5976
2017-02-18T13:23:59.419Z,5904
2017-02-18T13:25:04.529Z,5976
2017-02-18T13:26:10.638Z,6112
2017-02-18T13:27:14.781Z,6480
2017-02-18T13:28:19.903Z,6624
2017-02-18T13:29:24.035Z,6308
2017-02-18T13:30:30.145Z,6304
2017-02-18T13:31:35.263Z,6136
2017-02-18T13:32:41.369Z,6424
2017-02-18T13:33:47.508Z,7096
2017-02-18T13:34:53.601Z,7356
2017-02-18T13:35:57.737Z,7376
2017-02-18T13:37:03.838Z,7368
2017-02-18T13:38:08.138Z,7444
2017-02-18T13:39:14.427Z,7404
2017-02-18T13:40:17.537Z,7296
2017-02-18T13:41:22.667Z,7144
2017-02-18T13:42:28.762Z,6992
2017-02-18T13:43:32.903Z,7064
2017-02-18T13:44:38.031Z,6876
2017-02-18T13:45:43.167Z,6852
2017-02-18T13:46:47.326Z,6688
2017-02-18T13:47:52.474Z,6360
2017-02-18T13:48:58.553Z,6256
2017-02-18T13:50:04.661Z,6068
2017-02-18T13:51:09.809Z,5920
2017-02-18T13:52:14.957Z,5824
2017-02-18T13:53:20.088Z,5616
2017-02-18T13:54:24.263Z,5488
2017-02-18T13:55:29.392Z,5436
2017-02-18T13:56:35.500Z,5544
2017-02-18T13:57:40.634Z,5204
2017-02-18T13:58:45.769Z,4884
2017-02-18T13:59:50.893Z,4804
2017-02-18T14:00:56.990Z,4628
2017-02-18T14:02:03.088Z,4652
2017-02-18T14:03:08.228Z,4916
2017-02-18T14:04:13.380Z,4908
2017-02-18T14:05:19.547Z,4788
2017-02-18T14:06:24.674Z,4644
2017-02-18T14:07:28.862Z,4648
2017-02-18T14:08:33.072Z,4660
2017-02-18T14:09:39.172Z,4404
2017-02-18T14:10:45.268Z,4204
2017-02-18T14:11:51.430Z,4444
2017-02-18T14:12:57.459Z,4564
2017-02-18T14:14:03.563Z,4616
2017-02-18T14:15:09.661Z,4832
2017-02-18T14:16:14.818Z,5004
2017-02-18T14:17:19.938Z,5040
2017-02-18T14:18:24.104Z,4976
2017-02-18T14:19:29.238Z,4908
2017-02-18T14:20:34.370Z,4984
2017-02-18T14:21:39.441Z,4808
2017-02-18T14:22:44.590Z,4372
2017-02-18T14:23:49.793Z,4224
2017-02-18T14:24:55.891Z,4216
2017-02-18T14:26:00.047Z,4292
2017-02-18T14:27:05.247Z,4128
2017-02-18T14:28:09.383Z,4084
2017-02-18T14:29:15.487Z,4032
2017-02-18T14:30:21.602Z,3828
2017-02-18T14:31:26.762Z,3940
2017-02-18T14:32:32.864Z,3892
2017-02-18T14:33:37.975Z,3844
2017-02-18T14:34:43.116Z,3900
2017-02-18T14:35:49.215Z,4020
2017-02-18T14:36:54.340Z,3764
2017-02-18T14:38:00.447Z,3604
2017-02-18T14:40:08.817Z,3996
2017-02-18T14:41:15.029Z,3848
2017-02-18T14:42:21.130Z,3720
2017-02-18T14:43:26.249Z,3604
2017-02-18T14:44:31.382Z,3548
2017-02-18T14:45:37.492Z,3388
2017-02-18T14:46:41.631Z,3292
2017-02-18T14:47:47.740Z,3120
2017-02-18T14:48:52.869Z,2968
2017-02-18T14:49:57.035Z,3076
2017-02-18T14:51:02.183Z,3104
2017-02-18T14:52:08.282Z,2932
2017-02-18T14:53:12.443Z,2712
2017-02-18T14:54:17.591Z,2592
2017-02-18T14:55:23.675Z,2708
2017-02-18T14:56:28.796Z,2820
2017-02-18T14:57:34.905Z,2844
2017-02-18T14:58:41.002Z,2860
2017-02-18T14:59:45.167Z,2928
2017-02-18T15:00:51.332Z,2944
2017-02-18T15:01:57.428Z,2788
2017-02-18T15:03:00.595Z,2584
2017-02-18T15:04:05.724Z,2548
2017-02-18T15:05:11.877Z,2640
2017-02-18T15:06:17.981Z,2720
2017-02-18T15:07:23.117Z,2664
2017-02-18T15:08:28.248Z,2512
2017-02-18T15:09:33.393Z,2384
2017-02-18T15:10:37.527Z,2436
2017-02-18T15:11:42.645Z,2540
2017-02-18T15:12:47.778Z,2544
2017-02-18T15:13:53.885Z,2428
2017-02-18T15:15:00.009Z,2268
2017-02-18T15:16:04.135Z,2108
2017-02-18T15:17:08.269Z,2052
2017-02-18T15:18:13.409Z,1992
2017-02-18T15:19:16.611Z,1976
2017-02-18T15:20:22.712Z,2072
2017-02-18T15:21:28.810Z,2064
2017-02-18T15:22:34.914Z,2120
2017-02-18T15:23:39.086Z,2172
2017-02-18T15:24:45.189Z,2104
2017-02-18T15:25:50.328Z,2056
2017-02-18T15:26:55.443Z,1984
2017-02-18T15:28:00.596Z,1924
2017-02-18T15:29:06.701Z,1972
2017-02-18T15:30:11.824Z,2048
2017-02-18T15:31:16.959Z,2136
2017-02-18T15:32:23.075Z,2080
2017-02-18T15:33:28.223Z,2060
2017-02-18T15:34:34.328Z,2112
2017-02-18T15:35:37.625Z,2036
2017-02-18T15:36:43.733Z,1956
2017-02-18T15:37:47.943Z,1940
2017-02-18T15:38:54.130Z,1968
2017-02-18T15:39:59.160Z,1896
2017-02-18T15:41:05.259Z,1808
2017-02-18T15:42:11.388Z,1688
2017-02-18T15:43:17.503Z,1576
2017-02-18T15:44:21.673Z,1544
2017-02-18T15:45:26.819Z,1548
2017-02-18T15:46:32.015Z,1612
2017-02-18T15:47:37.132Z,1628
2017-02-18T15:48:43.229Z,1540
2017-02-18T15:49:48.356Z,1496
2017-02-18T15:50:53.472Z,1452
2017-02-18T15:51:58.596Z,1404
2017-02-18T15:53:03.733Z,1300
2017-02-18T15:54:07.879Z,1236
2017-02-18T15:55:13.981Z,1260
2017-02-18T15:56:17.148Z,1252
2017-02-18T15:57:22.277Z,1256
2017-02-18T15:58:28.382Z,1252
2017-02-18T15:59:34.479Z,1196
2017-02-18T16:00:39.579Z,1156
2017-02-18T16:01:45.689Z,1104
2017-02-18T16:02:50.822Z,1084
2017-02-18T16:03:55.932Z,1072
2017-02-18T16:05:00.107Z,1040
2017-02-18T16:06:06.205Z,1036
2017-02-18T16:07:12.310Z,988
2017-02-18T16:08:18.401Z,932
2017-02-18T16:09:23.577Z,908
2017-02-18T16:10:29.671Z,904
2017-02-18T16:11:35.806Z,872
2017-02-18T16:12:39.998Z,836
2017-02-18T16:13:46.099Z,820
2017-02-18T16:14:52.230Z,800
2017-02-18T16:15:57.355Z,780
2017-02-18T16:17:03.505Z,760
2017-02-18T16:18:08.653Z,736
2017-02-18T16:19:14.772Z,712
2017-02-18T16:20:20.851Z,680
2017-02-18T16:21:26.957Z,640
2017-02-18T16:22:33.062Z,612
2017-02-18T16:23:38.191Z,584
2017-02-18T16:24:44.304Z,544
2017-02-18T16:25:49.405Z,528
2017-02-18T16:26:55.510Z,516
2017-02-18T16:28:00.619Z,488
2017-02-18T16:29:03.939Z,472
2017-02-18T16:30:10.061Z,444
2017-02-18T16:31:15.206Z,420
2017-02-18T16:32:20.337Z,400
2017-02-18T16:33:26.456Z,360
2017-02-18T16:34:32.560Z,320
2017-02-18T16:35:37.695Z,288
2017-02-18T16:36:43.811Z,272
2017-02-18T16:37:49.912Z,256
2017-02-18T16:38:54.175Z,232
2017-02-18T16:39:59.199Z,212
2017-02-18T16:41:03.348Z,196
2017-02-18T16:42:09.545Z,176
2017-02-18T16:43:14.681Z,168
2017-02-18T16:44:20.792Z,164
2017-02-18T16:45:26.890Z,156
2017-02-18T16:46:31.024Z,148
2017-02-18T16:47:36.213Z,140
2017-02-18T16:48:40.561Z,128
2017-02-18T16:49:44.762Z,120
2017-02-18T16:50:49.896Z,108
2017-02-18T16:51:55.996Z,100
2017-02-18T16:53:00.159Z,92
2017-02-18T16:54:05.292Z,84
2017-02-18T16:55:10.542Z,72
2017-02-18T16:56:15.693Z,68
2017-02-18T16:57:21.861Z,60
2017-02-18T16:58:27.964Z,52
2017-02-18T16:59:33.091Z,44
2017-02-18T17:00:37.272Z,40
2017-02-18T17:01:40.563Z,32
2017-02-18T17:02:43.778Z,28
2017-02-18T17:03:48.879Z,24
2017-02-18T17:04:54.988Z,20
2017-02-18T17:06:00.134Z,16
2017-02-18T17:07:05.281Z,12
2017-02-18T17:08:08.434Z,12
2017-02-18T17:09:14.548Z,8
2017-02-18T17:10:20.650Z,4
2017-02-18T17:11:26.751Z,8
2017-02-18T17:12:32.895Z,8
2017-02-18T17:13:38.000Z,4
2017-02-18T17:14:42.186Z,4
2017-02-18T17:15:46.321Z,4
2017-02-18T17:16:52.417Z,4
2017-02-18T17:17:58.513Z,0
2017-02-18T17:19:03.626Z,4
2017-02-18T17:20:09.723Z,0
2017-02-18T17:21:15.837Z,0
2017-02-18T17:22:20.979Z,0
2017-02-18T17:23:26.129Z,0
2017-02-18T17:24:30.351Z,0
2017-02-18T17:25:36.446Z,0
2017-02-18T17:26:41.569Z,0
2017-02-18T17:27:45.700Z,0
2017-02-18T17:28:50.836Z,0
2017-02-18T17:29:56.938Z,0
2017-02-18T17:31:02.078Z,0
2017-02-18T17:32:08.178Z,0
2017-02-18T17:33:14.281Z,0
2017-02-18T17:34:20.389Z,0
2017-02-18T17:35:26.508Z,0
2017-02-18T17:36:31.647Z,0
2017-02-18T17:37:37.775Z,0
2017-02-18T17:38:42.895Z,0
2017-02-18T17:39:48.013Z,0
2017-02-18T17:40:54.130Z,0
2017-02-18T17:42:00.250Z,0
2017-02-18T17:43:05.402Z,0
2017-02-18T17:44:09.574Z,0
2017-02-18T17:45:15.674Z,0
2017-02-18T17:46:21.837Z,0
2017-02-18T17:47:26.988Z,0
2017-02-18T17:48:33.090Z,0
2017-02-18T17:49:39.187Z,0
2017-02-18T17:50:45.291Z,0
2017-02-18T17:51:50.457Z,0
2017-02-18T17:52:55.596Z,0
2017-02-18T17:54:01.689Z,0
2017-02-18T17:55:06.862Z,0
2017-02-18T17:56:12.977Z,0
2017-02-18T17:57:19.098Z,0
2017-02-18T17:58:24.227Z,0
2017-02-18T17:59:27.438Z,0
2017-02-18T18:00:32.576Z,0
2017-02-18T18:01:38.712Z,0
2017-02-18T18:02:43.826Z,0
2017-02-18T18:04:52.132Z,0
2017-02-18T18:05:57.267Z,0
2017-02-18T18:07:02.410Z,0
2017-02-18T18:08:07.539Z,0
2017-02-18T18:09:12.671Z,0
2017-02-18T18:10:17.817Z,0
2017-02-18T18:11:23.919Z,0
2017-02-18T18:12:28.061Z,0
2017-02-18T18:13:34.176Z,0
2017-02-18T18:14:40.257Z,0
2017-02-18T18:15:46.385Z,0
2017-02-18T18:16:51.487Z,0
2017-02-18T18:17:56.602Z,0
2017-02-18T18:19:00.750Z,0
2017-02-18T18:20:06.848Z,0
2017-02-18T18:21:11.991Z,0
2017-02-18T18:22:18.106Z,0
2017-02-18T18:23:24.222Z,0
2017-02-18T18:24:30.308Z,0
2017-02-18T18:25:36.408Z,0
2017-02-18T18:26:41.517Z,0
2017-02-18T18:27:47.623Z,0
2017-02-18T18:28:53.749Z,0
2017-02-18T18:29:59.828Z,0
2017-02-18T18:31:05.923Z,0
2017-02-18T18:32:10.085Z,0
2017-02-18T18:33:16.179Z,0
2017-02-18T18:34:21.335Z,0
2017-02-18T18:35:27.455Z,0
2017-02-18T18:36:31.593Z,0
2017-02-18T18:37:36.733Z,0
2017-02-18T18:38:42.834Z,0
2017-02-18T18:39:46.066Z,0
2017-02-18T18:40:52.154Z,0
2017-02-18T18:41:58.267Z,0
2017-02-18T18:43:04.364Z,0
2017-02-18T18:44:09.504Z,0
2017-02-18T18:45:14.631Z,0
2017-02-18T18:46:19.771Z,0
2017-02-18T18:47:25.867Z,0
2017-02-18T18:48:31.978Z,0
2017-02-18T18:49:37.126Z,0
2017-02-18T18:50:43.230Z,0
2017-02-18T18:51:48.355Z,0
2017-02-18T18:52:54.460Z,0
2017-02-18T18:54:00.553Z,0
2017-02-18T18:55:04.712Z,0
2017-02-18T18:56:10.804Z,0
2017-02-18T18:57:15.935Z,0
2017-02-18T18:58:22.041Z,0
2017-02-18T18:59:28.128Z,0
2017-02-18T19:00:34.218Z,0
2017-02-18T19:01:40.324Z,0
2017-02-18T19:02:45.446Z,0
2017-02-18T19:03:50.546Z,0
2017-02-18T19:04:56.645Z,0
2017-02-18T19:06:02.754Z,0
2017-02-18T19:07:08.864Z,0
2017-02-18T19:08:13.998Z,0
2017-02-18T19:09:19.129Z,0
2017-02-18T19:10:25.220Z,0
2017-02-18T19:11:31.334Z,0
2017-02-18T19:12:37.478Z,0
2017-02-18T19:13:42.614Z,0
2017-02-18T19:14:47.742Z,0
2017-02-18T19:15:52.877Z,0
2017-02-18T19:16:58.006Z,0
2017-02-18T19:18:04.098Z,0
2017-02-18T19:19:09.237Z,0
2017-02-18T19:20:15.337Z,0
2017-02-18T19:21:21.431Z,0
2017-02-18T19:22:27.547Z,0
2017-02-18T19:23:33.647Z,0
2017-02-18T19:24:38.822Z,0
2017-02-18T19:25:44.930Z,0
2017-02-18T19:26:51.045Z,0
2017-02-18T19:27:57.147Z,0
2017-02-18T19:29:02.291Z,0
2017-02-18T19:30:08.393Z,0
2017-02-18T19:31:11.597Z,0
2017-02-18T19:32:15.833Z,0
2017-02-18T19:33:22.054Z,0
2017-02-18T19:34:27.148Z,0
2017-02-18T19:35:33.262Z,0
2017-02-18T19:36:38.410Z,0
2017-02-18T19:37:43.536Z,0
2017-02-18T19:38:49.676Z,0
2017-02-18T19:39:54.928Z,0
2017-02-18T19:41:01.023Z,0
2017-02-18T19:42:05.195Z,0
2017-02-18T19:43:10.310Z,0
2017-02-18T19:44:15.450Z,0
2017-02-18T19:45:20.575Z,0
2017-02-18T19:46:25.731Z,0
2017-02-18T19:47:30.835Z,0
2017-02-18T19:48:36.953Z,0
2017-02-18T19:49:43.043Z,0
2017-02-18T19:50:48.162Z,0
2017-02-18T19:51:54.264Z,0
2017-02-18T19:52:59.401Z,0
2017-02-18T19:54:05.505Z,0
2017-02-18T19:55:09.669Z,0
2017-02-18T19:56:15.769Z,0
2017-02-18T19:57:19.928Z,0
2017-02-18T19:58:25.030Z,0
2017-02-18T19:59:30.152Z,0
2017-02-18T20:00:36.270Z,0
2017-02-18T20:01:42.364Z,0
2017-02-18T20:02:47.493Z,0
2017-02-18T20:03:53.601Z,0
2017-02-18T20:04:57.744Z,0
2017-02-18T20:06:03.860Z,0
2017-02-18T20:07:08.965Z,0
2017-02-18T20:08:15.051Z,0
2017-02-18T20:09:20.557Z,0
2017-02-18T20:10:26.719Z,0
2017-02-18T20:11:31.844Z,0
2017-02-18T20:12:36.035Z,0
2017-02-18T20:13:41.167Z,0
2017-02-18T20:14:46.290Z,0
2017-02-18T20:15:51.428Z,0
2017-02-18T20:16:55.682Z,0
2017-02-18T20:18:00.846Z,0
2017-02-18T20:19:06.935Z,0
2017-02-18T20:20:12.068Z,0
2017-02-18T20:21:17.170Z,0
2017-02-18T20:22:23.272Z,0
2017-02-18T20:23:29.374Z,0
2017-02-18T20:24:35.480Z,0
2017-02-18T20:25:41.576Z,0
2017-02-18T20:26:47.670Z,0
2017-02-18T20:27:52.798Z,0
2017-02-18T20:28:58.923Z,0
2017-02-18T20:30:05.009Z,0
2017-02-18T20:31:09.161Z,0
2017-02-18T20:32:12.350Z,0
2017-02-18T20:33:17.460Z,0
2017-02-18T20:34:22.587Z,0
2017-02-18T20:35:27.715Z,0
2017-02-18T20:36:33.808Z,0
2017-02-18T20:37:39.917Z,0
2017-02-18T20:38:45.036Z,0
2017-02-18T20:39:50.178Z,0
2017-02-18T20:40:56.372Z,0
2017-02-18T20:42:00.465Z,0
2017-02-18T20:43:06.560Z,0
2017-02-18T20:44:11.695Z,0
2017-02-18T20:45:16.933Z,0
2017-02-18T20:46:23.005Z,0
2017-02-18T20:47:28.183Z,0
2017-02-18T20:48:33.328Z,0
2017-02-18T20:49:38.469Z,0
2017-02-18T20:50:43.564Z,0
2017-02-18T20:51:48.662Z,0
2017-02-18T20:52:53.817Z,0
2017-02-18T20:53:59.919Z,0
2017-02-18T20:55:05.050Z,0
2017-02-18T20:56:11.201Z,0
2017-02-18T20:57:17.383Z,0
2017-02-18T20:58:22.520Z,0
2017-02-18T20:59:26.667Z,0
2017-02-18T21:00:32.765Z,0
2017-02-18T21:01:37.907Z,0
2017-02-18T21:02:43.995Z,0
2017-02-18T21:03:49.122Z,0
2017-02-18T21:04:54.248Z,0
2017-02-18T21:05:59.374Z,0
2017-02-18T21:07:05.478Z,0
2017-02-18T21:08:11.587Z,0
2017-02-18T21:09:16.730Z,0
2017-02-18T21:10:22.827Z,0
2017-02-18T21:11:27.964Z,0
2017-02-18T21:12:34.080Z,0
2017-02-18T21:13:40.174Z,0
2017-02-18T21:14:45.305Z,0
2017-02-18T21:15:50.430Z,0
2017-02-18T21:16:56.525Z,0
2017-02-18T21:18:01.651Z,0
2017-02-18T21:19:07.741Z,0
2017-02-18T21:20:13.868Z,0
2017-02-18T21:21:18.996Z,0
2017-02-18T21:22:25.090Z,0
2017-02-18T21:23:30.217Z,0
2017-02-18T21:24:35.347Z,0
2017-02-18T21:25:41.444Z,0
2017-02-18T21:26:46.611Z,0
2017-02-18T21:27:51.706Z,0
2017-02-18T21:28:57.798Z,0
2017-02-18T21:30:03.901Z,0
2017-02-18T21:31:09.010Z,0
2017-02-18T21:32:14.139Z,0
2017-02-18T21:33:20.239Z,0
2017-02-18T21:34:26.368Z,0
2017-02-18T21:35:32.461Z,0
2017-02-18T21:36:37.581Z,0
2017-02-18T21:37:43.687Z,0
2017-02-18T21:38:49.788Z,0
2017-02-18T21:39:53.950Z,0
2017-02-18T21:41:00.048Z,0
2017-02-18T21:42:06.141Z,0
2017-02-18T21:43:12.244Z,0
2017-02-18T21:44:18.409Z,0
2017-02-18T21:45:24.504Z,0
2017-02-18T21:46:30.641Z,0